Time;durP1;ratioP1;P1;durP2;ratioP2;P2;SDS_P1;SDS_P2;PMS_P1;PMS_P2;Temp;Humidity;BMP_temperature;BMP_pressure;BME280_temperature;BME280_humidity;BME280_pressure;Samples;Min_cycle;Max_cycle;Signal;HPM_P1;HPM_P2
2023/05/19 02:24:50;;;;;;;1999.90;999.90;;;;;;;;;;5609616;23;20618;-71
2023/05/19 02:27:36;;;;;;;1999.90;999.90;;;;;;;;;;4989304;28;20208;-71
2023/05/19 02:30:21;;;;;;;1999.90;999.90;;;;;;;;;;4991739;28;20231;-70
2023/05/19 02:33:06;;;;;;;1999.90;999.90;;;;;;;;;;4994255;28;20281;-69
2023/05/19 02:35:51;;;;;;;1999.90;999.90;;;;;;;;;;4993827;28;20362;-73
2023/05/19 02:38:36;;;;;;;1999.90;999.90;;;;;;;;;;4993746;28;20278;-72
2023/05/19 02:41:22;;;;;;;1999.90;999.90;;;;;;;;;;4993124;28;20282;-70
2023/05/19 02:44:07;;;;;;;1999.90;999.90;;;;;;;;;;4997353;28;20349;-70
2023/05/19 02:46:52;;;;;;;1999.90;999.90;;;;;;;;;;4993760;28;20327;-72
2023/05/19 02:49:37;;;;;;;1999.90;999.90;;;;;;;;;;4992717;28;20500;-71
2023/05/19 02:52:22;;;;;;;1999.90;999.90;;;;;;;;;;4992746;28;20203;-72
2023/05/19 02:55:07;;;;;;;1999.90;999.90;;;;;;;;;;4998058;28;20607;-73
2023/05/19 02:57:53;;;;;;;1999.90;999.90;;;;;;;;;;4993326;28;20211;-71
2023/05/19 03:00:38;;;;;;;1999.90;999.90;;;;;;;;;;5002752;28;20218;-72
2023/05/19 03:03:23;;;;;;;1999.90;999.90;;;;;;;;;;4991094;28;20449;-73
2023/05/19 03:06:08;;;;;;;1999.90;999.90;;;;;;;;;;4992940;28;20714;-73
2023/05/19 03:08:53;;;;;;;1999.90;999.90;;;;;;;;;;4993219;28;20258;-73
2023/05/19 03:11:38;;;;;;;1999.90;999.90;;;;;;;;;;4993135;28;20231;-73
2023/05/19 03:14:24;;;;;;;1999.90;999.90;;;;;;;;;;4991477;28;20255;-72
2023/05/19 03:17:09;;;;;;;1999.90;999.90;;;;;;;;;;4992002;28;20294;-73
2023/05/19 03:19:54;;;;;;;1999.90;999.90;;;;;;;;;;4993153;28;20579;-73
2023/05/19 03:22:39;;;;;;;1999.90;999.90;;;;;;;;;;4994593;28;20695;-70
2023/05/19 03:25:24;;;;;;;1999.90;999.90;;;;;;;;;;4991346;28;20233;-72
2023/05/19 03:28:10;;;;;;;1999.90;999.90;;;;;;;;;;4993402;28;20818;-70
2023/05/19 03:30:56;;;;;;;1999.90;999.90;;;;;;;;;;4992820;28;20238;-72
2023/05/19 03:33:41;;;;;;;1999.90;999.90;;;;;;;;;;4998577;28;20203;-71
2023/05/19 03:36:30;;;;;;;1999.90;999.90;;;;;;;;;;4991886;28;20930;-73
2023/05/19 03:39:15;;;;;;;1999.90;999.90;;;;;;;;;;4991658;28;20406;-70
2023/05/19 03:42:00;;;;;;;1999.90;999.90;;;;;;;;;;4995607;28;20586;-70
2023/05/19 03:44:45;;;;;;;1999.90;999.90;;;;;;;;;;4993877;28;20727;-69
2023/05/19 03:47:31;;;;;;;1999.90;999.90;;;;;;;;;;4984050;28;21033;-70
2023/05/19 03:50:16;;;;;;;1999.90;999.90;;;;;;;;;;4988445;28;20216;-70
2023/05/19 03:53:01;;;;;;;1999.90;999.90;;;;;;;;;;4988334;28;20441;-70
2023/05/19 03:55:47;;;;;;;1999.90;999.90;;;;;;;;;;4984651;28;20311;-70
2023/05/19 03:58:32;;;;;;;1999.90;999.90;;;;;;;;;;4992502;28;20210;-70
2023/05/19 04:01:17;;;;;;;1999.90;999.90;;;;;;;;;;4983714;28;20711;-71
2023/05/19 04:04:03;;;;;;;1999.90;999.90;;;;;;;;;;4991512;28;20231;-69
2023/05/19 04:06:48;;;;;;;1999.90;999.90;;;;;;;;;;4984178;28;20214;-70
2023/05/19 04:09:34;;;;;;;1999.90;999.90;;;;;;;;;;4991559;28;20210;-70
2023/05/19 04:12:19;;;;;;;1999.90;999.90;;;;;;;;;;4984617;28;20203;-69
2023/05/19 04:15:04;;;;;;;1999.90;999.90;;;;;;;;;;4983473;28;20283;-69
2023/05/19 04:17:49;;;;;;;1999.90;999.90;;;;;;;;;;4992514;28;20209;-69
2023/05/19 04:20:36;;;;;;;1999.90;999.90;;;;;;;;;;4985271;28;20204;-69
2023/05/19 04:23:21;;;;;;;1999.90;999.90;;;;;;;;;;4992629;28;20320;-69
2023/05/19 04:26:05;;;;;;;1999.90;999.90;;;;;;;;;;4990027;28;20481;-69
2023/05/19 04:28:50;;;;;;;1999.90;999.90;;;;;;;;;;4991427;28;20810;-70
2023/05/19 04:31:35;;;;;;;1999.90;999.90;;;;;;;;;;4992193;28;20227;-69
2023/05/19 04:34:20;;;;;;;1999.90;999.90;;;;;;;;;;4988278;28;20227;-69
2023/05/19 04:37:08;;;;;;;1999.90;999.90;;;;;;;;;;4989247;28;20207;-69
2023/05/19 04:39:53;;;;;;;1999.90;999.90;;;;;;;;;;4979725;28;20795;-70
2023/05/19 04:42:40;;;;;;;1999.90;999.90;;;;;;;;;;4986399;28;20206;-70
2023/05/19 04:45:25;;;;;;;1999.90;999.90;;;;;;;;;;4983102;28;20730;-69
2023/05/19 04:48:11;;;;;;;1999.90;999.90;;;;;;;;;;4990307;28;20207;-69
2023/05/19 04:50:56;;;;;;;1999.90;999.90;;;;;;;;;;4991969;28;20719;-70
2023/05/19 04:53:43;;;;;;;1999.90;999.90;;;;;;;;;;4978782;28;20393;-70
2023/05/19 04:56:28;;;;;;;1999.90;999.90;;;;;;;;;;4984205;28;20688;-70
2023/05/19 04:59:13;;;;;;;1999.90;999.90;;;;;;;;;;4991503;28;20216;-70
2023/05/19 05:01:58;;;;;;;1999.90;999.90;;;;;;;;;;4990402;28;20207;-70
2023/05/19 05:04:45;;;;;;;1999.90;999.90;;;;;;;;;;4983113;28;20235;-69
2023/05/19 05:07:30;;;;;;;1999.90;999.90;;;;;;;;;;4990682;28;20215;-69
2023/05/19 05:10:16;;;;;;;1999.90;999.90;;;;;;;;;;4988422;28;20215;-70
2023/05/19 05:13:01;;;;;;;1999.90;999.90;;;;;;;;;;4990299;28;20297;-69
2023/05/19 05:15:47;;;;;;;1999.90;999.90;;;;;;;;;;4991924;28;20302;-69
2023/05/19 05:18:32;;;;;;;1999.90;999.90;;;;;;;;;;4986637;28;20215;-70
2023/05/19 05:21:18;;;;;;;1999.90;999.90;;;;;;;;;;4995349;28;20207;-69
2023/05/19 05:24:03;;;;;;;1999.90;999.90;;;;;;;;;;4995367;28;20286;-67
2023/05/19 05:26:50;;;;;;;1999.90;999.90;;;;;;;;;;4998239;28;20290;-68
2023/05/19 05:29:35;;;;;;;1999.90;999.90;;;;;;;;;;4993018;28;20470;-70
2023/05/19 05:32:20;;;;;;;1999.90;999.90;;;;;;;;;;4999239;28;20223;-68
2023/05/19 05:35:06;;;;;;;1999.90;999.90;;;;;;;;;;5004260;28;20310;-69
2023/05/19 05:37:51;;;;;;;1999.90;999.90;;;;;;;;;;5013707;28;20207;-70
2023/05/19 05:40:35;;;;;;;1999.90;999.90;;;;;;;;;;5011485;28;20285;-69
2023/05/19 05:43:22;;;;;;;1999.90;999.90;;;;;;;;;;5005902;28;20210;-69
2023/05/19 05:46:07;;;;;;;1999.90;999.90;;;;;;;;;;4999883;28;20246;-69
2023/05/19 05:48:52;;;;;;;1999.90;999.90;;;;;;;;;;4998549;28;20222;-70
2023/05/19 05:51:37;;;;;;;1999.90;999.90;;;;;;;;;;5003126;28;20303;-69
2023/05/19 05:54:23;;;;;;;1999.90;999.90;;;;;;;;;;5002416;28;20257;-70
2023/05/19 05:57:09;;;;;;;1999.90;999.90;;;;;;;;;;5002691;28;20206;-71
2023/05/19 05:59:55;;;;;;;1999.90;999.90;;;;;;;;;;4994938;28;20222;-70
2023/05/19 06:02:40;;;;;;;1999.90;999.90;;;;;;;;;;4999355;28;20408;-70
2023/05/19 06:05:25;;;;;;;1999.90;999.90;;;;;;;;;;4995003;28;20589;-68
2023/05/19 06:08:10;;;;;;;1999.90;999.90;;;;;;;;;;4994497;28;20207;-69
2023/05/19 06:10:57;;;;;;;1999.90;999.90;;;;;;;;;;4994779;28;20224;-69
2023/05/19 06:13:41;;;;;;;1999.90;999.90;;;;;;;;;;5012554;28;20323;-69
2023/05/19 06:16:28;;;;;;;1999.90;999.90;;;;;;;;;;5001768;28;20435;-67
2023/05/19 06:19:13;;;;;;;1999.90;999.90;;;;;;;;;;5006907;28;20212;-70
2023/05/19 06:21:58;;;;;;;1999.90;999.90;;;;;;;;;;4994770;28;20200;-70
2023/05/19 06:24:43;;;;;;;1999.90;999.90;;;;;;;;;;4994612;28;20258;-69
2023/05/19 06:27:28;;;;;;;1999.90;999.90;;;;;;;;;;4998984;28;20215;-69
2023/05/19 06:30:13;;;;;;;1999.90;999.90;;;;;;;;;;4991437;28;20215;-69
2023/05/19 06:32:59;;;;;;;1999.90;999.90;;;;;;;;;;4996832;28;20822;-70
2023/05/19 06:35:44;;;;;;;1999.90;999.90;;;;;;;;;;4993165;28;20227;-71
2023/05/19 06:38:30;;;;;;;1999.90;999.90;;;;;;;;;;4999054;28;20211;-70
2023/05/19 06:41:15;;;;;;;1999.90;999.90;;;;;;;;;;4994073;28;20317;-70
2023/05/19 06:44:00;;;;;;;1999.90;999.90;;;;;;;;;;4986140;28;20227;-70
2023/05/19 06:46:45;;;;;;;1999.90;999.90;;;;;;;;;;4993052;28;20215;-70
2023/05/19 06:49:31;;;;;;;1999.90;999.90;;;;;;;;;;4988851;28;20421;-70
2023/05/19 06:52:16;;;;;;;1999.90;999.90;;;;;;;;;;5000929;28;20316;-69
2023/05/19 06:55:01;;;;;;;1999.90;999.90;;;;;;;;;;4995945;28;20800;-73
2023/05/19 06:57:46;;;;;;;1999.90;999.90;;;;;;;;;;4994435;28;20639;-71
2023/05/19 07:00:31;;;;;;;1999.90;999.90;;;;;;;;;;4991792;28;20212;-73
2023/05/19 07:03:16;;;;;;;1999.90;999.90;;;;;;;;;;4991263;28;20898;-71
2023/05/19 07:06:02;;;;;;;1999.90;999.90;;;;;;;;;;4994982;28;20580;-74
2023/05/19 07:08:47;;;;;;;1999.90;999.90;;;;;;;;;;4991909;28;20763;-71
2023/05/19 07:11:32;;;;;;;1999.90;999.90;;;;;;;;;;4991618;28;20337;-72
2023/05/19 07:14:17;;;;;;;1999.90;999.90;;;;;;;;;;4990561;28;20316;-71
2023/05/19 07:17:02;;;;;;;1999.90;999.90;;;;;;;;;;4989677;28;20223;-74
2023/05/19 07:19:47;;;;;;;1999.90;999.90;;;;;;;;;;4987385;28;20295;-73
2023/05/19 07:22:34;;;;;;;1999.90;999.90;;;;;;;;;;4992104;28;20912;-72
2023/05/19 07:25:19;;;;;;;1999.90;999.90;;;;;;;;;;4992884;28;20325;-74
2023/05/19 07:28:04;;;;;;;1999.90;999.90;;;;;;;;;;4998084;28;20299;-73
2023/05/19 07:30:49;;;;;;;1999.90;999.90;;;;;;;;;;4987320;28;20211;-71
2023/05/19 07:33:34;;;;;;;1999.90;999.90;;;;;;;;;;4992529;28;20209;-72
2023/05/19 07:36:19;;;;;;;1999.90;999.90;;;;;;;;;;4991863;28;20457;-73
2023/05/19 07:39:05;;;;;;;1999.90;999.90;;;;;;;;;;4992563;28;20366;-73
2023/05/19 07:41:54;;;;;;;1999.90;999.90;;;;;;;;;;4989358;28;20218;-73
2023/05/19 07:44:39;;;;;;;1999.90;999.90;;;;;;;;;;4984941;28;20231;-73
2023/05/19 07:47:24;;;;;;;1999.90;999.90;;;;;;;;;;4987515;28;20701;-73
2023/05/19 07:50:08;;;;;;;1999.90;999.90;;;;;;;;;;4991988;28;21042;-73
2023/05/19 07:52:53;;;;;;;1999.90;999.90;;;;;;;;;;4988782;28;20762;-73
2023/05/19 07:55:40;;;;;;;1999.90;999.90;;;;;;;;;;4992356;28;20230;-72
2023/05/19 07:58:25;;;;;;;1999.90;999.90;;;;;;;;;;4990282;28;20207;-74
2023/05/19 08:01:09;;;;;;;1999.90;999.90;;;;;;;;;;4991081;28;20624;-74
2023/05/19 08:03:54;;;;;;;1999.90;999.90;;;;;;;;;;4987586;28;20257;-74
2023/05/19 08:06:41;;;;;;;1999.90;999.90;;;;;;;;;;4991811;28;20586;-73
2023/05/19 08:09:26;;;;;;;1999.90;999.90;;;;;;;;;;4992399;28;20316;-72
2023/05/19 08:12:12;;;;;;;1999.90;999.90;;;;;;;;;;4983425;28;20231;-72
2023/05/19 08:14:57;;;;;;;1999.90;999.90;;;;;;;;;;4992479;28;20239;-74
2023/05/19 08:17:42;;;;;;;1999.90;999.90;;;;;;;;;;4990558;28;20574;-73
2023/05/19 08:20:27;;;;;;;1999.90;999.90;;;;;;;;;;4983872;28;20754;-73
2023/05/19 08:23:12;;;;;;;1999.90;999.90;;;;;;;;;;4986756;28;20429;-74
2023/05/19 08:25:57;;;;;;;1999.90;999.90;;;;;;;;;;4987922;28;20219;-73
2023/05/19 08:28:43;;;;;;;1999.90;999.90;;;;;;;;;;4988270;28;20284;-74
2023/05/19 08:31:28;;;;;;;1999.90;999.90;;;;;;;;;;4997841;28;20242;-74
2023/05/19 08:34:13;;;;;;;1999.90;999.90;;;;;;;;;;4997490;28;20595;-71
2023/05/19 08:36:58;;;;;;;1999.90;999.90;;;;;;;;;;4991185;28;20815;-73
2023/05/19 08:39:43;;;;;;;1999.90;999.90;;;;;;;;;;5001635;28;20205;-73
2023/05/19 08:42:28;;;;;;;1999.90;999.90;;;;;;;;;;5001699;28;20722;-75
2023/05/19 08:45:14;;;;;;;1999.90;999.90;;;;;;;;;;4997272;28;20230;-73
2023/05/19 08:48:00;;;;;;;1999.90;999.90;;;;;;;;;;4992436;28;20215;-73
2023/05/19 08:50:48;;;;;;;1999.90;999.90;;;;;;;;;;4990660;28;20375;-74
2023/05/19 08:53:36;;;;;;;1999.90;999.90;;;;;;;;;;5010303;28;20245;-71
2023/05/19 08:56:22;;;;;;;1999.90;999.90;;;;;;;;;;5014912;28;20289;-74
2023/05/19 08:59:08;;;;;;;1999.90;999.90;;;;;;;;;;5015192;28;20202;-74
2023/05/19 09:01:55;;;;;;;1999.90;999.90;;;;;;;;;;5011903;28;20210;-73
2023/05/19 09:04:40;;;;;;;1999.90;999.90;;;;;;;;;;4995675;28;20682;-74
2023/05/19 09:07:25;;;;;;;1999.90;999.90;;;;;;;;;;4995887;28;20362;-72
2023/05/19 09:10:13;;;;;;;1999.90;999.90;;;;;;;;;;4995525;28;20429;-74
2023/05/19 09:12:58;;;;;;;1999.90;999.90;;;;;;;;;;4995606;28;20845;-74
2023/05/19 09:15:44;;;;;;;1999.90;999.90;;;;;;;;;;4995714;28;20235;-75
2023/05/19 09:18:30;;;;;;;1999.90;999.90;;;;;;;;;;4995571;28;20257;-73
2023/05/19 09:21:15;;;;;;;1999.90;999.90;;;;;;;;;;4995352;28;20805;-74
2023/05/19 09:24:04;;;;;;;1999.90;999.90;;;;;;;;;;4995348;28;20289;-74
2023/05/19 09:26:48;;;;;;;1999.90;999.90;;;;;;;;;;4994944;28;21619;-74
2023/05/19 09:29:33;;;;;;;1999.90;999.90;;;;;;;;;;4984625;28;20707;-74
2023/05/19 09:32:25;;;;;;;1999.90;999.90;;;;;;;;;;4989453;28;20231;-74
2023/05/19 09:35:12;;;;;;;1999.90;999.90;;;;;;;;;;4991394;28;20251;-73
2023/05/19 09:37:57;;;;;;;1999.90;999.90;;;;;;;;;;4982162;28;20915;-73
2023/05/19 09:40:42;;;;;;;1999.90;999.90;;;;;;;;;;4994233;28;20283;-73
2023/05/19 09:43:28;;;;;;;1999.90;999.90;;;;;;;;;;4995023;28;20232;-73
2023/05/19 09:46:14;;;;;;;1999.90;999.90;;;;;;;;;;5013308;28;20260;-71
2023/05/19 09:48:59;;;;;;;1999.90;999.90;;;;;;;;;;5014511;28;20241;-73
2023/05/19 09:51:46;;;;;;;1999.90;999.90;;;;;;;;;;5014431;28;20215;-73
2023/05/19 09:54:31;;;;;;;1999.90;999.90;;;;;;;;;;5011209;28;20239;-73
2023/05/19 09:57:16;;;;;;;1999.90;999.90;;;;;;;;;;4991325;28;20414;-73
2023/05/19 10:00:07;;;;;;;1999.90;999.90;;;;;;;;;;4990332;28;20590;-72
2023/05/19 10:02:52;;;;;;;1999.90;999.90;;;;;;;;;;4994950;28;20584;-73
2023/05/19 10:05:38;;;;;;;1999.90;999.90;;;;;;;;;;4989926;28;20293;-71
2023/05/19 10:08:26;;;;;;;1999.90;999.90;;;;;;;;;;4990100;28;20232;-73
2023/05/19 10:11:11;;;;;;;1999.90;999.90;;;;;;;;;;4990825;28;20330;-74
2023/05/19 10:13:57;;;;;;;1999.90;999.90;;;;;;;;;;4987938;28;20807;-72
2023/05/19 10:16:43;;;;;;;1999.90;999.90;;;;;;;;;;4990642;28;20291;-73
2023/05/19 10:19:28;;;;;;;1999.90;999.90;;;;;;;;;;4991197;28;20223;-72
2023/05/19 10:22:13;;;;;;;1999.90;999.90;;;;;;;;;;4984999;28;20213;-74
2023/05/19 10:24:59;;;;;;;1999.90;999.90;;;;;;;;;;4997034;28;20239;-71
2023/05/19 10:27:47;;;;;;;1999.90;999.90;;;;;;;;;;4994259;28;20237;-73
2023/05/19 10:30:33;;;;;;;1999.90;999.90;;;;;;;;;;4984909;28;20267;-73
2023/05/19 10:33:19;;;;;;;1999.90;999.90;;;;;;;;;;4993967;28;20224;-73
2023/05/19 10:36:22;;;;;;;1999.90;999.90;;;;;;;;;;4991509;28;20355;-71
2023/05/19 10:39:13;;;;;;;1999.90;999.90;;;;;;;;;;4992843;28;20209;-72
2023/05/19 10:42:03;;;;;;;1999.90;999.90;;;;;;;;;;4984147;28;20290;-71
2023/05/19 10:44:55;;;;;;;1999.90;999.90;;;;;;;;;;4985692;28;20349;-71
2023/05/19 10:47:40;;;;;;;1999.90;999.90;;;;;;;;;;4989914;28;20202;-72
2023/05/19 10:50:26;;;;;;;1999.90;999.90;;;;;;;;;;4991390;28;20210;-70
2023/05/19 10:53:17;;;;;;;1999.90;999.90;;;;;;;;;;4991799;28;20448;-72
2023/05/19 10:56:02;;;;;;;1999.90;999.90;;;;;;;;;;4991374;28;20226;-72
2023/05/19 10:58:52;;;;;;;1999.90;999.90;;;;;;;;;;4976677;28;20870;-72
2023/05/19 11:01:38;;;;;;;1999.90;999.90;;;;;;;;;;4991277;28;20226;-72
2023/05/19 11:04:39;;;;;;;1999.90;999.90;;;;;;;;;;4991264;28;20350;-72
2023/05/19 11:07:24;;;;;;;1999.90;999.90;;;;;;;;;;4983573;28;20213;-73
2023/05/19 11:10:10;;;;;;;1999.90;999.90;;;;;;;;;;4986823;28;20208;-73
2023/05/19 11:12:56;;;;;;;1999.90;999.90;;;;;;;;;;4992385;28;20223;-73
2023/05/19 11:15:42;;;;;;;1999.90;999.90;;;;;;;;;;4990280;28;20227;-72
2023/05/19 11:18:27;;;;;;;1999.90;999.90;;;;;;;;;;4991123;28;20218;-71
2023/05/19 11:21:12;;;;;;;1999.90;999.90;;;;;;;;;;4984994;28;20221;-71
2023/05/19 11:23:57;;;;;;;1999.90;999.90;;;;;;;;;;4990819;28;20425;-72
2023/05/19 11:26:43;;;;;;;1999.90;999.90;;;;;;;;;;4990244;28;20706;-73
2023/05/19 11:29:27;;;;;;;1999.90;999.90;;;;;;;;;;4995164;28;20221;-73
2023/05/19 11:32:14;;;;;;;1999.90;999.90;;;;;;;;;;4992724;28;20213;-72
2023/05/19 11:34:59;;;;;;;1999.90;999.90;;;;;;;;;;4986583;28;20321;-73
2023/05/19 11:37:45;;;;;;;1999.90;999.90;;;;;;;;;;4992681;28;20258;-73
2023/05/19 11:40:30;;;;;;;1999.90;999.90;;;;;;;;;;4990446;28;20435;-73
2023/05/19 11:43:16;;;;;;;1999.90;999.90;;;;;;;;;;4992841;28;20209;-72
2023/05/19 11:46:00;;;;;;;1999.90;999.90;;;;;;;;;;4993038;28;20250;-72
2023/05/19 11:48:49;;;;;;;1999.90;999.90;;;;;;;;;;4993468;28;20862;-73
2023/05/19 11:51:34;;;;;;;1999.90;999.90;;;;;;;;;;4991101;28;20218;-73
2023/05/19 11:54:19;;;;;;;1999.90;999.90;;;;;;;;;;4991850;28;20334;-73
2023/05/19 11:57:04;;;;;;;1999.90;999.90;;;;;;;;;;4987163;28;20237;-74
2023/05/19 11:59:51;;;;;;;1999.90;999.90;;;;;;;;;;4992738;28;20296;-75
2023/05/19 12:02:36;;;;;;;1999.90;999.90;;;;;;;;;;4992619;28;20202;-75
2023/05/19 12:05:23;;;;;;;1999.90;999.90;;;;;;;;;;4992761;28;20594;-74
2023/05/19 12:08:07;;;;;;;1999.90;999.90;;;;;;;;;;4992635;28;20213;-74
2023/05/19 12:10:52;;;;;;;1999.90;999.90;;;;;;;;;;4992412;28;20416;-74
2023/05/19 12:13:38;;;;;;;1999.90;999.90;;;;;;;;;;4992289;28;20234;-75
2023/05/19 12:16:23;;;;;;;1999.90;999.90;;;;;;;;;;4992656;28;20205;-75
2023/05/19 12:19:08;;;;;;;1999.90;999.90;;;;;;;;;;4992380;28;20690;-74
2023/05/19 12:21:54;;;;;;;1999.90;999.90;;;;;;;;;;4992565;28;20210;-75
2023/05/19 12:24:40;;;;;;;1999.90;999.90;;;;;;;;;;4985910;28;20245;-74
2023/05/19 12:27:25;;;;;;;1999.90;999.90;;;;;;;;;;4979288;28;20494;-74
2023/05/19 12:30:11;;;;;;;1999.90;999.90;;;;;;;;;;4990583;28;20297;-73
2023/05/19 12:32:57;;;;;;;1999.90;999.90;;;;;;;;;;4990901;28;20333;-73
2023/05/19 12:35:42;;;;;;;1999.90;999.90;;;;;;;;;;4991500;28;20288;-69
2023/05/19 12:38:28;;;;;;;1999.90;999.90;;;;;;;;;;4990181;28;20739;-72
2023/05/19 12:41:14;;;;;;;1999.90;999.90;;;;;;;;;;4994044;28;20349;-73
2023/05/19 12:43:59;;;;;;;1999.90;999.90;;;;;;;;;;4991915;28;20237;-73
2023/05/19 12:46:44;;;;;;;1999.90;999.90;;;;;;;;;;4994081;28;20218;-73
2023/05/19 12:49:28;;;;;;;1999.90;999.90;;;;;;;;;;4989123;28;20210;-73
2023/05/19 12:52:13;;;;;;;1999.90;999.90;;;;;;;;;;4993616;28;20226;-74
2023/05/19 12:55:00;;;;;;;1999.90;999.90;;;;;;;;;;4986919;28;20236;-72
2023/05/19 12:57:48;;;;;;;1999.90;999.90;;;;;;;;;;4995433;28;20218;-72
2023/05/19 13:00:34;;;;;;;1999.90;999.90;;;;;;;;;;4994929;28;20415;-72
2023/05/19 13:03:20;;;;;;;1999.90;999.90;;;;;;;;;;5005077;28;20202;-72
2023/05/19 13:06:05;;;;;;;1999.90;999.90;;;;;;;;;;4994933;28;20219;-72
2023/05/19 13:08:50;;;;;;;1999.90;999.90;;;;;;;;;;4995951;28;20707;-73
2023/05/19 13:11:36;;;;;;;1999.90;999.90;;;;;;;;;;5011870;28;20213;-72
2023/05/19 13:14:21;;;;;;;1999.90;999.90;;;;;;;;;;4994432;28;20437;-71
2023/05/19 13:17:06;;;;;;;1999.90;999.90;;;;;;;;;;4996410;28;20253;-72
2023/05/19 13:19:51;;;;;;;1999.90;999.90;;;;;;;;;;5014132;28;20261;-71
2023/05/19 13:22:36;;;;;;;1999.90;999.90;;;;;;;;;;5014567;28;20246;-72
2023/05/19 13:25:21;;;;;;;1999.90;999.90;;;;;;;;;;5014303;28;20814;-72
2023/05/19 13:28:08;;;;;;;1999.90;999.90;;;;;;;;;;5015304;28;20296;-72
2023/05/19 13:30:53;;;;;;;1999.90;999.90;;;;;;;;;;5004130;28;20218;-71
2023/05/19 13:33:39;;;;;;;1999.90;999.90;;;;;;;;;;4993148;28;20219;-71
2023/05/19 13:36:23;;;;;;;1999.90;999.90;;;;;;;;;;4991754;28;20711;-72
2023/05/19 13:39:08;;;;;;;1999.90;999.90;;;;;;;;;;4990366;28;20221;-73
2023/05/19 13:41:53;;;;;;;1999.90;999.90;;;;;;;;;;4991507;28;20289;-71
2023/05/19 13:44:39;;;;;;;1999.90;999.90;;;;;;;;;;4992018;28;20354;-74
2023/05/19 13:47:24;;;;;;;1999.90;999.90;;;;;;;;;;4992870;28;20214;-73
2023/05/19 13:50:10;;;;;;;1999.90;999.90;;;;;;;;;;4993124;28;20218;-74
2023/05/19 13:52:56;;;;;;;1999.90;999.90;;;;;;;;;;4991062;28;20212;-73
2023/05/19 13:55:41;;;;;;;1999.90;999.90;;;;;;;;;;4992344;28;20390;-73
2023/05/19 13:58:26;;;;;;;1999.90;999.90;;;;;;;;;;4992720;28;20217;-74
2023/05/19 14:01:12;;;;;;;1999.90;999.90;;;;;;;;;;4991204;28;20218;-72
2023/05/19 14:03:57;;;;;;;1999.90;999.90;;;;;;;;;;4990747;28;20231;-73
2023/05/19 14:06:42;;;;;;;1999.90;999.90;;;;;;;;;;4992538;28;20329;-73
2023/05/19 14:09:27;;;;;;;1999.90;999.90;;;;;;;;;;4989880;28;20218;-72
2023/05/19 14:12:12;;;;;;;1999.90;999.90;;;;;;;;;;4991834;28;20589;-74
2023/05/19 14:14:57;;;;;;;1999.90;999.90;;;;;;;;;;4990441;28;20648;-71
2023/05/19 14:17:44;;;;;;;1999.90;999.90;;;;;;;;;;4989961;28;20215;-72
2023/05/19 14:20:29;;;;;;;1999.90;999.90;;;;;;;;;;4991590;28;20206;-72
2023/05/19 14:23:15;;;;;;;1999.90;999.90;;;;;;;;;;4993095;28;20215;-72
2023/05/19 14:26:00;;;;;;;1999.90;999.90;;;;;;;;;;4992278;28;20730;-72
2023/05/19 14:28:45;;;;;;;1999.90;999.90;;;;;;;;;;4991644;28;20265;-73
2023/05/19 14:31:30;;;;;;;1999.90;999.90;;;;;;;;;;4995868;28;20226;-74
2023/05/19 14:34:19;;;;;;;1999.90;999.90;;;;;;;;;;4989830;28;20445;-71
2023/05/19 14:37:04;;;;;;;1999.90;999.90;;;;;;;;;;4989661;28;20306;-74
2023/05/19 14:39:50;;;;;;;1999.90;999.90;;;;;;;;;;4991560;28;20218;-73
2023/05/19 14:42:34;;;;;;;1999.90;999.90;;;;;;;;;;4991026;28;20215;-74
2023/05/19 14:45:19;;;;;;;1999.90;999.90;;;;;;;;;;4990195;28;20416;-74
2023/05/19 14:48:04;;;;;;;1999.90;999.90;;;;;;;;;;4988461;28;20353;-73
2023/05/19 14:50:51;;;;;;;1999.90;999.90;;;;;;;;;;4989691;28;20708;-72
2023/05/19 14:53:36;;;;;;;1999.90;999.90;;;;;;;;;;4989412;28;20226;-74
2023/05/19 14:56:21;;;;;;;1999.90;999.90;;;;;;;;;;4991018;28;20735;-73
2023/05/19 14:59:06;;;;;;;1999.90;999.90;;;;;;;;;;4988582;28;20689;-74
2023/05/19 15:01:51;;;;;;;1999.90;999.90;;;;;;;;;;4991591;28;20246;-74
2023/05/19 15:04:36;;;;;;;1999.90;999.90;;;;;;;;;;4990691;28;20234;-74
2023/05/19 15:07:23;;;;;;;1999.90;999.90;;;;;;;;;;4991406;28;20214;-72
2023/05/19 15:10:08;;;;;;;1999.90;999.90;;;;;;;;;;4990294;28;20302;-73
2023/05/19 15:12:55;;;;;;;1999.90;999.90;;;;;;;;;;4991747;28;20681;-74
2023/05/19 15:15:40;;;;;;;1999.90;999.90;;;;;;;;;;4984316;28;20347;-72
2023/05/19 15:18:25;;;;;;;1999.90;999.90;;;;;;;;;;4990029;28;20599;-73
2023/05/19 15:21:10;;;;;;;1999.90;999.90;;;;;;;;;;4988765;28;20498;-73
2023/05/19 15:23:56;;;;;;;1999.90;999.90;;;;;;;;;;4989863;28;20229;-71
2023/05/19 15:26:41;;;;;;;1999.90;999.90;;;;;;;;;;4990951;28;20945;-73
2023/05/19 15:29:26;;;;;;;1999.90;999.90;;;;;;;;;;4990030;28;20290;-74
2023/05/19 15:32:11;;;;;;;1999.90;999.90;;;;;;;;;;4990027;28;20710;-72
2023/05/19 15:34:56;;;;;;;1999.90;999.90;;;;;;;;;;4988591;28;20239;-73
2023/05/19 15:37:41;;;;;;;1999.90;999.90;;;;;;;;;;4988659;28;20445;-73
2023/05/19 15:40:27;;;;;;;1999.90;999.90;;;;;;;;;;4991316;28;20227;-75
2023/05/19 15:43:12;;;;;;;1999.90;999.90;;;;;;;;;;4982142;28;20238;-70
2023/05/19 15:45:57;;;;;;;1999.90;999.90;;;;;;;;;;4982383;28;20363;-71
2023/05/19 15:48:42;;;;;;;1999.90;999.90;;;;;;;;;;4991301;28;20211;-70
2023/05/19 15:51:27;;;;;;;1999.90;999.90;;;;;;;;;;4986768;28;20215;-71
2023/05/19 15:54:12;;;;;;;1999.90;999.90;;;;;;;;;;4992001;28;20255;-70
2023/05/19 15:56:58;;;;;;;1999.90;999.90;;;;;;;;;;4992274;28;20631;-69
2023/05/19 15:59:43;;;;;;;1999.90;999.90;;;;;;;;;;4993172;28;20214;-70
2023/05/19 16:02:28;;;;;;;1999.90;999.90;;;;;;;;;;4987341;28;20768;-70
2023/05/19 16:05:13;;;;;;;1999.90;999.90;;;;;;;;;;4992418;28;20227;-71
2023/05/19 16:07:58;;;;;;;1999.90;999.90;;;;;;;;;;4997084;28;20230;-69
2023/05/19 16:10:43;;;;;;;1999.90;999.90;;;;;;;;;;4992425;28;20215;-69
2023/05/19 16:13:32;;;;;;;1999.90;999.90;;;;;;;;;;4997191;28;20304;-69
2023/05/19 16:16:17;;;;;;;1999.90;999.90;;;;;;;;;;4992461;28;20336;-69
2023/05/19 16:19:02;;;;;;;1999.90;999.90;;;;;;;;;;4990953;28;20416;-69
2023/05/19 16:21:47;;;;;;;1999.90;999.90;;;;;;;;;;4992373;28;20247;-70
2023/05/19 16:24:32;;;;;;;1999.90;999.90;;;;;;;;;;4996087;28;20238;-70
2023/05/19 16:27:17;;;;;;;1999.90;999.90;;;;;;;;;;4986535;28;20571;-70
2023/05/19 16:30:04;;;;;;;1999.90;999.90;;;;;;;;;;4992436;28;20241;-69
2023/05/19 16:32:49;;;;;;;1999.90;999.90;;;;;;;;;;4992504;28;20215;-69
2023/05/19 16:35:35;;;;;;;1999.90;999.90;;;;;;;;;;4992111;28;20301;-69
2023/05/19 16:38:19;;;;;;;1999.90;999.90;;;;;;;;;;4992108;28;20219;-70
2023/05/19 16:41:06;;;;;;;1999.90;999.90;;;;;;;;;;4991997;28;20207;-70
2023/05/19 16:43:51;;;;;;;1999.90;999.90;;;;;;;;;;4990124;28;20238;-70
2023/05/19 16:46:37;;;;;;;1999.90;999.90;;;;;;;;;;4992236;28;20222;-70
2023/05/19 16:49:22;;;;;;;1999.90;999.90;;;;;;;;;;4988096;28;20461;-70
2023/05/19 16:52:07;;;;;;;1999.90;999.90;;;;;;;;;;4990449;28;20706;-70
2023/05/19 16:54:52;;;;;;;1999.90;999.90;;;;;;;;;;4996230;28;20232;-70
2023/05/19 16:57:37;;;;;;;1999.90;999.90;;;;;;;;;;4992114;28;20231;-71
2023/05/19 17:00:22;;;;;;;1999.90;999.90;;;;;;;;;;4993035;28;20210;-71
2023/05/19 17:03:08;;;;;;;1999.90;999.90;;;;;;;;;;4986112;28;20210;-70
2023/05/19 17:05:53;;;;;;;1999.90;999.90;;;;;;;;;;4989845;28;20448;-70
2023/05/19 17:08:38;;;;;;;1999.90;999.90;;;;;;;;;;4992449;28;20222;-70
2023/05/19 17:11:23;;;;;;;1999.90;999.90;;;;;;;;;;4990533;28;20329;-71
2023/05/19 17:14:08;;;;;;;1999.90;999.90;;;;;;;;;;4989956;28;20604;-70
2023/05/19 17:16:53;;;;;;;1999.90;999.90;;;;;;;;;;4995304;28;20265;-70
2023/05/19 17:19:39;;;;;;;1999.90;999.90;;;;;;;;;;4995324;28;20691;-71
2023/05/19 17:22:24;;;;;;;1999.90;999.90;;;;;;;;;;4990386;28;20710;-70
2023/05/19 17:25:09;;;;;;;1999.90;999.90;;;;;;;;;;4988227;28;20711;-70
2023/05/19 17:27:55;;;;;;;1999.90;999.90;;;;;;;;;;4995418;28;20210;-70
2023/05/19 17:30:41;;;;;;;1999.90;999.90;;;;;;;;;;4995636;28;20214;-71
2023/05/19 17:33:26;;;;;;;1999.90;999.90;;;;;;;;;;4985732;28;20221;-71
2023/05/19 17:36:12;;;;;;;1999.90;999.90;;;;;;;;;;4994449;28;20534;-69
2023/05/19 17:38:57;;;;;;;1999.90;999.90;;;;;;;;;;4990188;28;20986;-69
2023/05/19 17:41:43;;;;;;;1999.90;999.90;;;;;;;;;;4991824;28;20265;-70
2023/05/19 17:44:27;;;;;;;1999.90;999.90;;;;;;;;;;4993060;28;20229;-70
2023/05/19 17:47:12;;;;;;;1999.90;999.90;;;;;;;;;;4988794;28;20287;-69